< < Back
Terminal Aerodrome Forecast


Current Version              Previous Versions:   1  2  3  4  5  6  7  8  9  

Terminal Aerodrome Forecast

211
FTUS42 KCAE 270532
TAFCAE
TAF
KCAE 270532Z 2706/2806 VRB03KT P6SM BKN250
     FM271600 VRB05KT P6SM SCT060=

Latest METAR

661
SAUS80 KWBC 271600
MTRCAE
METAR KCAE 271556Z 11007KT 10SM FEW055 SCT070 32/19 A3008 RMK AO2 SLP181
T03170189


USA.gov is the U.S. government's official web portal to all federal, state and local government web resources and services.